Time;durP1;ratioP1;P1;durP2;ratioP2;P2;SDS_P1;SDS_P2;PMS_P1;PMS_P2;Temp;Humidity;BMP_temperature;BMP_pressure;BME280_temperature;BME280_humidity;BME280_pressure;Samples;Min_cycle;Max_cycle;Signal;HPM_P1;HPM_P2
2024/02/16 00:00:46;;;;;;;3.80;2.47;;;12.30;99.90;;;;;;5132062;28;20186;-76
2024/02/16 00:03:12;;;;;;;2.53;1.80;;;12.30;99.90;;;;;;5127770;28;20195;-77
2024/02/16 00:05:38;;;;;;;5.40;2.33;;;12.30;99.90;;;;;;5148579;28;20433;-78
2024/02/16 00:08:04;;;;;;;5.63;2.20;;;12.30;99.90;;;;;;5116090;28;20456;-79
2024/02/16 00:10:30;;;;;;;4.87;1.87;;;12.30;99.90;;;;;;5114097;28;20413;-75
2024/02/16 00:12:56;;;;;;;4.20;1.90;;;12.30;99.90;;;;;;5148558;27;20409;-75
2024/02/16 00:15:23;;;;;;;2.47;1.80;;;12.30;99.90;;;;;;5132960;27;20254;-74
2024/02/16 00:17:49;;;;;;;2.77;2.17;;;12.30;99.90;;;;;;5133818;27;20435;-76
2024/02/16 00:20:16;;;;;;;3.40;1.93;;;12.30;99.90;;;;;;5153398;27;20424;-76
2024/02/16 00:22:42;;;;;;;4.43;2.30;;;12.40;99.90;;;;;;5134475;27;20190;-74
2024/02/16 00:25:08;;;;;;;4.17;1.83;;;12.30;99.90;;;;;;5124994;27;20845;-75
2024/02/16 00:27:33;;;;;;;6.10;2.20;;;12.30;99.90;;;;;;5148243;27;20210;-75
2024/02/16 00:29:59;;;;;;;4.40;1.80;;;12.30;99.90;;;;;;5133648;27;20178;-74
2024/02/16 00:32:29;;;;;;;3.03;2.10;;;12.30;99.90;;;;;;5135472;27;20191;-78
2024/02/16 00:34:55;;;;;;;5.37;2.00;;;12.30;99.90;;;;;;5148823;27;20193;-75
2024/02/16 00:37:21;;;;;;;2.57;1.80;;;12.30;99.90;;;;;;5113546;27;20436;-75
2024/02/16 00:39:47;;;;;;;2.27;1.77;;;12.30;99.90;;;;;;5136035;27;20208;-78
2024/02/16 00:42:13;;;;;;;3.33;1.73;;;12.30;99.90;;;;;;5123328;27;20222;-74
2024/02/16 00:44:38;;;;;;;3.13;2.10;;;12.30;99.90;;;;;;5146976;27;20565;-74
2024/02/16 00:47:09;;;;;;;3.70;1.97;;;12.30;99.90;;;;;;5153385;27;20206;-75
2024/02/16 00:49:35;;;;;;;3.13;1.60;;;12.30;99.90;;;;;;5145524;27;20210;-77
2024/02/16 00:52:01;;;;;;;2.80;2.20;;;12.40;99.90;;;;;;5146599;27;20396;-75
2024/02/16 00:54:27;;;;;;;3.50;2.17;;;12.40;99.90;;;;;;5126390;27;20182;-74
2024/02/16 00:56:54;;;;;;;3.33;1.87;;;12.40;99.90;;;;;;5152169;27;20528;-78
2024/02/16 00:59:21;;;;;;;2.80;2.13;;;12.40;99.90;;;;;;5120530;27;20182;-75
2024/02/16 01:01:46;;;;;;;4.30;1.77;;;12.40;99.90;;;;;;5143907;27;20711;-75
2024/02/16 01:04:12;;;;;;;2.53;1.60;;;12.40;99.90;;;;;;5140356;27;20420;-76
2024/02/16 01:06:38;;;;;;;3.33;1.70;;;12.40;99.90;;;;;;5116570;28;20536;-75
2024/02/16 01:09:03;;;;;;;2.70;1.40;;;12.40;99.90;;;;;;5142572;27;20173;-74
2024/02/16 01:11:29;;;;;;;3.00;1.73;;;12.40;99.90;;;;;;5144230;27;20212;-75
2024/02/16 01:13:55;;;;;;;3.57;1.90;;;12.40;99.90;;;;;;5144233;27;20191;-75
2024/02/16 01:16:20;;;;;;;5.23;2.23;;;12.40;99.90;;;;;;5144148;27;20218;-75
2024/02/16 01:18:46;;;;;;;2.33;1.67;;;12.40;99.90;;;;;;5145372;27;20202;-74
2024/02/16 01:21:12;;;;;;;4.37;1.90;;;12.40;99.90;;;;;;5137078;27;20191;-74
2024/02/16 01:23:37;;;;;;;3.87;2.20;;;12.40;99.90;;;;;;5144505;27;20191;-75
2024/02/16 01:26:03;;;;;;;5.33;1.70;;;12.40;99.90;;;;;;5146705;27;20228;-74
2024/02/16 01:28:29;;;;;;;4.73;1.60;;;12.50;99.90;;;;;;5146568;27;20213;-75
2024/02/16 01:30:56;;;;;;;2.50;1.63;;;12.50;99.90;;;;;;5146575;27;20411;-76
2024/02/16 01:33:22;;;;;;;3.00;1.63;;;12.50;99.90;;;;;;5164651;27;20425;-75
2024/02/16 01:35:48;;;;;;;3.20;1.87;;;12.50;99.90;;;;;;5144097;27;20747;-75
2024/02/16 01:38:13;;;;;;;5.83;1.73;;;12.50;99.90;;;;;;5150388;27;20419;-76
2024/02/16 01:40:40;;;;;;;4.47;1.90;;;12.60;99.90;;;;;;5146916;27;20171;-75
2024/02/16 01:43:05;;;;;;;3.70;2.30;;;12.60;99.90;;;;;;5128163;27;20486;-76
2024/02/16 01:45:31;;;;;;;2.50;1.90;;;12.60;99.90;;;;;;5119820;27;20511;-74
2024/02/16 01:47:57;;;;;;;4.20;2.13;;;12.60;99.90;;;;;;5139829;27;20203;-75
2024/02/16 01:50:23;;;;;;;6.63;2.07;;;12.60;99.90;;;;;;5113470;28;20214;-76
2024/02/16 01:52:50;;;;;;;8.10;2.30;;;12.70;99.90;;;;;;5122724;28;20424;-76
2024/02/16 01:55:16;;;;;;;4.53;2.17;;;12.70;99.90;;;;;;5129891;28;20454;-76
2024/02/16 01:57:46;;;;;;;4.50;1.70;;;12.60;99.90;;;;;;5121712;28;20434;-74
2024/02/16 02:00:14;;;;;;;3.33;1.70;;;12.60;99.90;;;;;;5124070;27;20233;-76
2024/02/16 02:02:43;;;;;;;3.63;1.97;;;12.60;99.90;;;;;;5126597;28;20394;-78
2024/02/16 02:05:09;;;;;;;4.23;1.80;;;12.60;99.90;;;;;;5126474;28;20474;-76
2024/02/16 02:07:35;;;;;;;2.93;1.53;;;12.60;99.90;;;;;;5124911;27;20453;-79
2024/02/16 02:10:01;;;;;;;3.60;1.70;;;12.60;99.90;;;;;;5135894;27;20273;-75
2024/02/16 02:12:27;;;;;;;5.37;2.63;;;12.60;99.90;;;;;;5127792;28;20420;-77
2024/02/16 02:14:52;;;;;;;6.30;2.17;;;12.60;99.90;;;;;;5110474;28;20248;-74
2024/02/16 02:17:18;;;;;;;3.63;1.57;;;12.60;99.90;;;;;;5107348;28;20336;-75
2024/02/16 02:19:46;;;;;;;2.57;1.43;;;12.60;99.90;;;;;;5134284;27;20211;-74
2024/02/16 02:22:21;;;;;;;3.23;2.10;;;12.70;99.90;;;;;;5105885;28;20195;-76
2024/02/16 02:24:49;;;;;;;2.60;1.83;;;12.70;99.90;;;;;;5120586;28;20528;-74
2024/02/16 02:27:15;;;;;;;4.17;1.90;;;12.70;99.90;;;;;;5134187;27;20465;-74
2024/02/16 02:29:41;;;;;;;1.73;1.63;;;12.70;99.90;;;;;;5107952;28;20410;-75
2024/02/16 02:32:08;;;;;;;3.53;1.97;;;12.70;99.90;;;;;;5130271;27;20416;-74
2024/02/16 02:34:33;;;;;;;3.63;2.03;;;12.60;99.90;;;;;;5121071;28;20417;-74
2024/02/16 02:36:59;;;;;;;5.10;2.07;;;12.60;99.90;;;;;;5128663;27;20454;-74
2024/02/16 02:39:25;;;;;;;4.17;1.90;;;12.60;99.90;;;;;;5128822;27;20227;-76
2024/02/16 02:41:51;;;;;;;2.80;1.80;;;12.60;99.90;;;;;;5111160;27;20237;-74
2024/02/16 02:44:19;;;;;;;3.20;1.77;;;12.50;99.90;;;;;;5130434;27;20696;-75
2024/02/16 02:46:44;;;;;;;2.27;1.50;;;12.50;99.90;;;;;;5116462;28;20211;-76
2024/02/16 02:49:10;;;;;;;3.27;1.77;;;12.50;99.90;;;;;;5132850;27;20613;-75
2024/02/16 02:51:36;;;;;;;2.67;1.63;;;12.50;99.90;;;;;;5135212;27;20202;-74
2024/02/16 02:54:01;;;;;;;4.20;2.40;;;12.40;99.90;;;;;;5131258;28;20229;-73
2024/02/16 02:56:27;;;;;;;2.20;1.90;;;12.40;99.90;;;;;;5121134;28;20211;-74
2024/02/16 02:58:53;;;;;;;5.13;1.90;;;12.50;99.90;;;;;;5144419;27;20191;-74
2024/02/16 03:01:20;;;;;;;5.60;1.97;;;12.50;99.90;;;;;;5129234;28;20198;-74
2024/02/16 03:03:46;;;;;;;2.13;1.47;;;12.60;99.90;;;;;;5126337;28;20195;-75
2024/02/16 03:06:13;;;;;;;2.80;1.67;;;12.60;99.90;;;;;;5130227;27;20457;-75
2024/02/16 03:08:39;;;;;;;5.73;1.97;;;12.60;99.90;;;;;;5136691;27;20460;-75
2024/02/16 03:11:05;;;;;;;3.23;2.07;;;12.50;99.90;;;;;;5127994;27;20420;-73
2024/02/16 03:13:33;;;;;;;3.60;1.97;;;12.40;99.90;;;;;;5131637;28;20681;-74
2024/02/16 03:15:58;;;;;;;3.40;2.20;;;12.30;99.90;;;;;;5141497;27;20195;-77
2024/02/16 03:18:24;;;;;;;2.97;1.63;;;12.20;99.90;;;;;;5122049;28;20565;-78
2024/02/16 03:20:50;;;;;;;4.43;1.83;;;12.20;99.90;;;;;;5138147;28;20225;-74
2024/02/16 03:23:16;;;;;;;5.03;2.13;;;12.20;99.90;;;;;;5127374;28;20223;-74
2024/02/16 03:25:42;;;;;;;2.70;1.90;;;12.20;99.90;;;;;;5133010;28;20743;-75
2024/02/16 03:28:14;;;;;;;3.20;2.00;;;12.20;99.90;;;;;;5098155;28;20762;-76
2024/02/16 03:30:40;;;;;;;4.33;1.93;;;12.20;99.90;;;;;;5123838;27;20231;-76
2024/02/16 03:33:05;;;;;;;3.53;1.93;;;12.20;99.90;;;;;;5120486;27;20937;-74
2024/02/16 03:35:31;;;;;;;3.63;2.30;;;12.20;99.90;;;;;;5128716;28;20947;-75
2024/02/16 03:37:57;;;;;;;4.73;2.90;;;12.20;99.90;;;;;;5133113;28;20201;-75
2024/02/16 03:40:24;;;;;;;3.33;1.83;;;12.20;99.90;;;;;;5122342;28;20182;-75
2024/02/16 03:42:50;;;;;;;2.50;1.80;;;12.20;99.90;;;;;;5122872;28;20572;-75
2024/02/16 03:45:16;;;;;;;4.43;2.10;;;12.20;99.90;;;;;;5128161;28;20451;-75
2024/02/16 03:47:42;;;;;;;4.90;2.17;;;12.20;99.90;;;;;;5131211;27;21257;-73
2024/02/16 03:50:08;;;;;;;2.67;1.83;;;12.20;99.90;;;;;;5127384;27;20421;-75
2024/02/16 03:52:34;;;;;;;4.30;2.13;;;12.20;99.90;;;;;;5135395;27;20186;-73
2024/02/16 03:55:00;;;;;;;3.60;2.40;;;12.20;99.90;;;;;;5118974;27;20452;-74
2024/02/16 03:57:26;;;;;;;4.30;2.00;;;12.30;99.90;;;;;;5137948;27;20657;-75
2024/02/16 03:59:51;;;;;;;2.90;2.00;;;12.20;99.90;;;;;;5128298;27;20209;-74
2024/02/16 04:02:17;;;;;;;4.03;2.20;;;12.30;99.90;;;;;;5132403;27;20496;-75
2024/02/16 04:04:42;;;;;;;8.20;3.07;;;12.20;99.90;;;;;;5118869;27;20502;-76
2024/02/16 04:07:08;;;;;;;3.53;1.83;;;12.20;99.90;;;;;;5132303;27;20305;-74
2024/02/16 04:09:34;;;;;;;4.77;2.30;;;12.20;99.90;;;;;;5121272;27;20315;-76
2024/02/16 04:12:03;;;;;;;3.93;2.20;;;12.20;99.90;;;;;;5128093;27;20189;-74
2024/02/16 04:14:30;;;;;;;3.80;2.00;;;12.20;99.90;;;;;;5129787;27;20479;-74
2024/02/16 04:16:58;;;;;;;4.03;2.10;;;12.20;99.90;;;;;;5143156;27;20436;-75
2024/02/16 04:19:27;;;;;;;4.83;2.77;;;12.30;99.90;;;;;;5143627;27;20404;-75
2024/02/16 04:21:52;;;;;;;6.60;2.40;;;12.30;99.90;;;;;;5142613;27;20416;-74
2024/02/16 04:24:18;;;;;;;3.30;2.13;;;12.30;99.90;;;;;;5115792;27;20430;-74
2024/02/16 04:26:44;;;;;;;3.33;1.80;;;12.30;99.90;;;;;;5130437;27;20215;-74
2024/02/16 04:29:10;;;;;;;5.37;2.00;;;12.30;99.90;;;;;;5135562;27;20225;-74
2024/02/16 04:31:36;;;;;;;2.40;2.00;;;12.30;99.90;;;;;;5145489;27;20435;-77
2024/02/16 04:34:02;;;;;;;4.07;1.83;;;12.30;99.90;;;;;;5135801;27;20417;-73
2024/02/16 04:36:27;;;;;;;4.70;1.77;;;12.20;99.90;;;;;;5124572;27;20724;-74
2024/02/16 04:38:53;;;;;;;3.70;2.10;;;12.10;99.90;;;;;;5128849;27;20699;-75
2024/02/16 04:41:22;;;;;;;4.50;2.23;;;12.10;99.90;;;;;;5142207;27;20252;-75
2024/02/16 04:43:48;;;;;;;5.10;2.17;;;12.00;99.90;;;;;;5152802;27;20201;-73
2024/02/16 04:46:17;;;;;;;6.43;2.03;;;11.90;99.90;;;;;;5134281;27;20443;-75
2024/02/16 04:48:43;;;;;;;3.87;2.00;;;11.90;99.90;;;;;;5151000;27;20460;-73
2024/02/16 04:51:08;;;;;;;2.40;1.90;;;12.00;99.90;;;;;;5144809;27;20426;-74
2024/02/16 04:53:34;;;;;;;4.77;2.10;;;12.00;99.90;;;;;;5161666;27;20182;-75
2024/02/16 04:55:59;;;;;;;2.40;1.87;;;12.00;99.90;;;;;;5137829;27;20202;-75
2024/02/16 04:58:26;;;;;;;4.17;2.43;;;12.00;99.90;;;;;;5140362;27;20435;-75
2024/02/16 05:00:52;;;;;;;2.83;2.00;;;12.00;99.90;;;;;;5140184;27;20193;-74
2024/02/16 05:03:17;;;;;;;3.83;2.20;;;12.00;99.90;;;;;;5140342;27;20428;-73
2024/02/16 05:05:43;;;;;;;2.50;2.10;;;12.00;99.90;;;;;;5151223;27;20457;-73
2024/02/16 05:08:09;;;;;;;7.20;2.30;;;12.10;99.90;;;;;;5111088;27;20225;-73
2024/02/16 05:10:35;;;;;;;2.60;1.90;;;12.10;99.90;;;;;;5144501;27;20713;-74
2024/02/16 05:13:00;;;;;;;3.23;2.40;;;12.10;99.90;;;;;;5141194;27;20187;-75
2024/02/16 05:15:26;;;;;;;2.90;2.00;;;12.10;99.90;;;;;;5154387;27;20564;-74
2024/02/16 05:17:51;;;;;;;2.00;1.77;;;12.10;99.90;;;;;;5153644;27;20202;-74
2024/02/16 05:20:19;;;;;;;4.30;2.10;;;12.10;99.90;;;;;;5130056;27;20234;-75
2024/02/16 05:22:46;;;;;;;3.93;2.57;;;12.10;99.90;;;;;;5127861;27;20211;-76
2024/02/16 05:25:13;;;;;;;9.03;2.93;;;12.10;99.90;;;;;;5152269;27;20706;-75
2024/02/16 05:27:38;;;;;;;4.80;2.53;;;12.10;99.90;;;;;;5131591;27;20457;-75
2024/02/16 05:30:07;;;;;;;6.20;2.07;;;12.20;99.90;;;;;;5154388;27;20411;-76
2024/02/16 05:32:37;;;;;;;5.90;3.07;;;12.20;99.90;;;;;;5118521;27;20170;-75
2024/02/16 05:35:16;;;;;;;4.20;2.60;;;12.20;99.90;;;;;;5126211;27;20428;-76
2024/02/16 05:37:51;;;;;;;3.47;2.13;;;12.20;99.90;;;;;;5144336;27;20424;-76
2024/02/16 05:40:30;;;;;;;3.10;2.20;;;12.20;99.90;;;;;;5145902;27;20437;-76
2024/02/16 05:42:59;;;;;;;3.90;2.10;;;12.20;99.90;;;;;;5148491;27;20463;-76
2024/02/16 05:45:28;;;;;;;4.13;2.17;;;12.20;99.90;;;;;;5147466;27;20408;-77
2024/02/16 05:47:54;;;;;;;3.60;2.07;;;12.20;99.90;;;;;;5147732;27;20744;-76
2024/02/16 05:50:22;;;;;;;4.03;2.13;;;12.20;99.90;;;;;;5143241;27;20442;-76
2024/02/16 05:52:49;;;;;;;4.63;2.40;;;12.20;99.90;;;;;;5121682;27;20239;-74
2024/02/16 05:55:15;;;;;;;5.03;2.17;;;12.20;99.90;;;;;;5128667;27;20405;-76
2024/02/16 05:57:41;;;;;;;3.40;2.20;;;12.20;99.90;;;;;;5117744;28;20422;-73
2024/02/16 06:00:08;;;;;;;6.93;2.43;;;12.20;99.90;;;;;;5126285;27;20179;-76
2024/02/16 06:02:35;;;;;;;5.30;2.60;;;12.20;99.90;;;;;;5128044;27;20179;-74
2024/02/16 06:05:02;;;;;;;3.73;2.80;;;12.30;99.90;;;;;;5130416;27;20435;-74
2024/02/16 06:07:28;;;;;;;5.30;2.40;;;12.20;99.90;;;;;;5127658;27;20469;-79
2024/02/16 06:09:57;;;;;;;4.13;2.33;;;12.20;99.90;;;;;;5110847;27;20526;-78
2024/02/16 06:12:24;;;;;;;3.40;2.13;;;12.10;99.90;;;;;;5127574;27;20412;-76
2024/02/16 06:14:49;;;;;;;4.40;2.40;;;12.10;99.90;;;;;;5146513;27;20496;-76
2024/02/16 06:17:16;;;;;;;5.37;2.23;;;12.10;99.90;;;;;;5115502;28;20472;-75
2024/02/16 06:19:42;;;;;;;7.67;2.27;;;12.10;99.90;;;;;;5134511;27;20232;-77
2024/02/16 06:22:08;;;;;;;6.10;2.90;;;12.10;99.90;;;;;;5124078;28;20417;-75
2024/02/16 06:24:34;;;;;;;3.93;2.47;;;12.10;99.90;;;;;;5157246;27;20420;-77
2024/02/16 06:27:00;;;;;;;5.90;2.30;;;12.20;99.90;;;;;;5144507;27;20205;-75
2024/02/16 06:29:26;;;;;;;4.40;2.33;;;12.20;99.90;;;;;;5148906;27;20770;-76
2024/02/16 06:31:52;;;;;;;5.27;3.10;;;12.30;99.90;;;;;;5133224;27;20427;-76
2024/02/16 06:34:19;;;;;;;4.90;2.90;;;12.30;99.90;;;;;;5125918;27;20190;-79
2024/02/16 06:36:45;;;;;;;4.03;2.50;;;12.40;99.90;;;;;;5133823;27;20299;-76
2024/02/16 06:39:14;;;;;;;3.97;2.27;;;12.40;99.90;;;;;;5140781;27;20827;-75
2024/02/16 06:41:43;;;;;;;3.40;2.27;;;12.50;99.90;;;;;;5107740;28;20478;-80
2024/02/16 06:44:09;;;;;;;3.77;2.53;;;12.50;99.90;;;;;;5139379;27;20420;-76
2024/02/16 06:46:35;;;;;;;4.70;2.13;;;12.50;99.90;;;;;;5125951;28;20445;-76
2024/02/16 06:49:00;;;;;;;4.83;2.50;;;12.50;99.90;;;;;;5114958;28;20240;-77
2024/02/16 06:51:28;;;;;;;3.13;2.20;;;12.50;99.90;;;;;;5121977;28;20186;-75
2024/02/16 06:53:54;;;;;;;4.13;2.20;;;12.40;99.90;;;;;;5113657;28;20194;-76
2024/02/16 06:56:20;;;;;;;3.60;2.23;;;12.40;99.90;;;;;;5099925;28;20431;-77
2024/02/16 06:58:47;;;;;;;2.80;1.87;;;12.40;99.90;;;;;;5110330;28;20416;-78
2024/02/16 07:01:13;;;;;;;4.40;2.40;;;12.40;99.90;;;;;;5144346;27;20503;-77
2024/02/16 07:03:40;;;;;;;2.13;1.87;;;12.50;99.90;;;;;;5110934;28;20434;-76
2024/02/16 07:06:09;;;;;;;4.73;2.30;;;12.50;99.90;;;;;;5132462;28;20449;-76
2024/02/16 07:08:36;;;;;;;3.23;2.53;;;12.50;99.90;;;;;;5132658;28;20460;-77
2024/02/16 07:11:03;;;;;;;3.13;2.57;;;12.50;99.90;;;;;;5143671;28;20410;-79
2024/02/16 07:13:29;;;;;;;3.83;2.10;;;12.50;99.90;;;;;;5133745;28;20473;-77
2024/02/16 07:15:54;;;;;;;11.00;3.10;;;12.60;99.90;;;;;;5111998;28;20455;-77
2024/02/16 07:18:21;;;;;;;3.87;2.20;;;12.60;99.90;;;;;;5125572;28;20191;-76
2024/02/16 07:20:47;;;;;;;5.03;2.60;;;12.60;99.90;;;;;;5134302;28;20191;-77
2024/02/16 07:23:15;;;;;;;4.00;2.57;;;12.60;99.90;;;;;;5122532;28;20516;-80
2024/02/16 07:25:41;;;;;;;4.03;2.53;;;12.70;99.90;;;;;;5113894;28;20441;-78
2024/02/16 07:28:08;;;;;;;3.30;2.33;;;12.70;99.90;;;;;;5134903;27;20526;-77
2024/02/16 07:30:38;;;;;;;6.63;2.23;;;12.80;99.90;;;;;;5132216;28;20406;-76
2024/02/16 07:33:06;;;;;;;7.13;2.87;;;12.90;99.90;;;;;;5126175;28;20409;-76
2024/02/16 07:35:33;;;;;;;4.53;2.50;;;13.00;99.90;;;;;;5136855;27;20528;-77
2024/02/16 07:37:59;;;;;;;4.13;2.17;;;13.00;99.90;;;;;;5128712;28;20433;-77
2024/02/16 07:40:25;;;;;;;5.77;2.63;;;13.10;99.90;;;;;;5108119;27;20424;-76
2024/02/16 07:42:50;;;;;;;3.33;2.30;;;13.10;99.90;;;;;;5127875;27;20223;-78
2024/02/16 07:45:16;;;;;;;3.10;2.13;;;13.20;99.90;;;;;;5114134;27;20218;-77
2024/02/16 07:47:42;;;;;;;4.17;2.07;;;13.30;99.90;;;;;;5125307;28;20187;-76
2024/02/16 07:50:09;;;;;;;3.00;2.30;;;13.30;99.90;;;;;;5146219;27;20202;-75
2024/02/16 07:52:35;;;;;;;5.67;2.63;;;13.30;99.90;;;;;;5135846;27;20440;-72
2024/02/16 07:55:01;;;;;;;6.63;2.37;;;13.30;99.90;;;;;;5132185;27;20411;-73
2024/02/16 07:57:27;;;;;;;4.30;2.13;;;13.40;99.90;;;;;;5137013;27;20520;-71
2024/02/16 07:59:53;;;;;;;4.90;2.73;;;13.40;99.90;;;;;;5145010;27;20649;-70
2024/02/16 08:02:19;;;;;;;7.77;2.30;;;13.40;99.90;;;;;;5149679;27;20197;-71
2024/02/16 08:04:51;;;;;;;3.00;2.00;;;13.50;99.90;;;;;;5142299;27;20399;-71
2024/02/16 08:07:17;;;;;;;3.60;1.90;;;13.50;99.90;;;;;;5151702;27;20468;-69
2024/02/16 08:09:46;;;;;;;2.70;2.10;;;13.50;99.90;;;;;;5127259;27;20428;-68
2024/02/16 08:12:15;;;;;;;4.13;1.90;;;13.50;99.90;;;;;;5138880;27;20192;-69
2024/02/16 08:14:42;;;;;;;3.85;2.20;;;13.50;99.90;;;;;;5135629;27;20425;-73
2024/02/16 08:17:09;;;;;;;3.57;2.67;;;13.60;99.90;;;;;;5137274;27;20234;-70
2024/02/16 08:19:36;;;;;;;5.67;2.60;;;13.60;99.90;;;;;;5141274;27;20642;-71
2024/02/16 08:22:07;;;;;;;6.77;2.50;;;13.60;99.90;;;;;;5122943;27;20436;-70
2024/02/16 08:24:37;;;;;;;7.93;2.33;;;13.70;99.90;;;;;;5144090;27;20428;-72
2024/02/16 08:27:04;;;;;;;4.10;2.33;;;13.70;99.90;;;;;;5140051;27;20437;-70
2024/02/16 08:29:30;;;;;;;5.47;2.60;;;13.80;99.90;;;;;;5155657;27;20455;-72
2024/02/16 08:31:55;;;;;;;6.90;3.00;;;13.80;99.90;;;;;;5146522;27;20415;-70
2024/02/16 08:34:22;;;;;;;4.93;3.03;;;13.80;99.90;;;;;;5141391;27;20188;-69
2024/02/16 08:36:49;;;;;;;3.97;2.13;;;13.90;99.90;;;;;;5149176;27;20539;-72
2024/02/16 08:39:16;;;;;;;3.47;2.10;;;13.90;99.90;;;;;;5149052;27;20415;-68
2024/02/16 08:41:44;;;;;;;3.60;2.67;;;13.90;99.90;;;;;;5158701;27;20464;-68
2024/02/16 08:44:10;;;;;;;5.13;2.90;;;13.90;99.90;;;;;;5138054;27;20536;-68
2024/02/16 08:46:39;;;;;;;8.50;3.23;;;14.00;99.90;;;;;;5145812;27;20502;-69
2024/02/16 08:49:05;;;;;;;4.53;2.57;;;14.00;99.90;;;;;;5122910;27;20546;-68
2024/02/16 08:51:34;;;;;;;3.87;2.40;;;14.00;99.90;;;;;;5144218;27;20448;-67
2024/02/16 08:54:00;;;;;;;4.50;2.57;;;14.00;99.90;;;;;;5145292;27;20419;-69
2024/02/16 08:56:29;;;;;;;9.40;2.50;;;14.00;99.90;;;;;;5141886;27;20432;-71
2024/02/16 08:58:54;;;;;;;5.70;2.83;;;14.10;99.90;;;;;;5135616;27;20847;-67
2024/02/16 09:01:35;;;;;;;5.60;2.67;;;14.10;99.90;;;;;;5151120;27;20416;-70
2024/02/16 09:04:01;;;;;;;8.20;3.00;;;14.20;99.90;;;;;;5136501;27;20255;-69
2024/02/16 09:06:28;;;;;;;4.87;2.70;;;14.20;99.90;;;;;;5136482;27;20508;-70
2024/02/16 09:08:54;;;;;;;5.97;2.80;;;14.30;99.90;;;;;;5135388;27;20578;-69
2024/02/16 09:11:20;;;;;;;3.93;2.70;;;14.30;99.90;;;;;;5131596;27;20406;-69
2024/02/16 09:13:45;;;;;;;6.37;2.70;;;14.40;99.90;;;;;;5132765;27;20898;-69
2024/02/16 09:16:11;;;;;;;6.83;2.60;;;14.50;99.90;;;;;;5137563;27;20212;-72
2024/02/16 09:18:37;;;;;;;3.87;2.47;;;14.60;99.90;;;;;;5148935;27;20200;-69
2024/02/16 09:21:03;;;;;;;5.70;2.80;;;14.70;99.90;;;;;;5142286;27;20535;-68
2024/02/16 09:23:29;;;;;;;6.03;3.67;;;14.70;99.90;;;;;;5137057;27;20507;-69
2024/02/16 09:25:55;;;;;;;5.47;2.67;;;14.70;99.90;;;;;;5157835;27;20963;-69
2024/02/16 09:28:21;;;;;;;4.00;2.27;;;14.70;99.90;;;;;;5140976;27;20513;-67
2024/02/16 09:30:47;;;;;;;6.47;3.13;;;14.60;99.90;;;;;;5138266;27;20243;-70
2024/02/16 09:33:13;;;;;;;4.37;2.67;;;14.60;99.90;;;;;;5137552;27;20325;-71
2024/02/16 09:35:40;;;;;;;4.17;2.50;;;14.50;99.90;;;;;;5138702;27;20436;-72
2024/02/16 09:38:06;;;;;;;7.47;3.87;;;14.50;99.90;;;;;;5133386;27;20541;-69
2024/02/16 09:40:32;;;;;;;6.50;3.60;;;14.50;99.90;;;;;;5154240;27;20469;-69
2024/02/16 09:42:58;;;;;;;6.33;2.87;;;14.50;99.90;;;;;;5143959;27;20467;-73
2024/02/16 09:45:25;;;;;;;6.00;3.20;;;14.50;99.90;;;;;;5141695;27;20499;-70
2024/02/16 09:47:55;;;;;;;3.73;2.73;;;14.60;99.90;;;;;;5141624;27;20202;-70
2024/02/16 09:50:21;;;;;;;6.23;2.60;;;14.70;99.90;;;;;;5140420;27;20521;-70
2024/02/16 09:52:49;;;;;;;4.67;2.70;;;14.80;99.90;;;;;;5142322;27;20437;-69
2024/02/16 09:55:17;;;;;;;6.63;2.73;;;14.80;99.90;;;;;;5148350;27;20252;-69
2024/02/16 09:57:43;;;;;;;5.10;2.77;;;14.80;99.90;;;;;;5152803;27;20450;-71
2024/02/16 10:00:10;;;;;;;6.93;2.70;;;14.80;99.90;;;;;;5143636;27;20432;-70
2024/02/16 10:02:43;;;;;;;5.13;2.97;;;14.70;99.90;;;;;;5135683;27;20564;-70
2024/02/16 10:05:20;;;;;;;8.93;3.50;;;14.60;99.90;;;;;;5141701;27;20424;-68
2024/02/16 10:07:47;;;;;;;4.47;2.60;;;14.50;99.90;;;;;;5119981;27;20725;-71
2024/02/16 10:10:22;;;;;;;3.63;2.67;;;14.50;99.90;;;;;;5143115;27;20424;-69
2024/02/16 10:12:48;;;;;;;3.47;2.67;;;14.40;99.90;;;;;;5148218;27;20408;-70
2024/02/16 10:15:24;;;;;;;4.07;3.13;;;14.40;99.90;;;;;;5141473;27;20881;-70
2024/02/16 10:18:01;;;;;;;5.60;2.97;;;14.40;99.90;;;;;;5142769;27;20222;-70
2024/02/16 10:20:27;;;;;;;3.60;2.30;;;14.40;99.90;;;;;;5139821;27;20423;-68
2024/02/16 10:23:06;;;;;;;5.27;2.90;;;14.50;99.90;;;;;;5141069;27;20756;-71
2024/02/16 10:25:32;;;;;;;4.83;2.10;;;14.60;99.90;;;;;;5136306;27;20441;-68
2024/02/16 10:27:59;;;;;;;7.43;3.20;;;14.70;99.90;;;;;;5130386;27;20483;-69
2024/02/16 10:30:30;;;;;;;6.20;3.17;;;14.70;99.90;;;;;;5116431;27;20928;-70
2024/02/16 10:32:59;;;;;;;8.00;2.97;;;14.70;99.90;;;;;;5150442;27;20420;-68
2024/02/16 10:35:25;;;;;;;8.63;2.40;;;14.70;99.90;;;;;;5145852;27;20469;-72
2024/02/16 10:37:51;;;;;;;5.93;2.70;;;14.70;99.90;;;;;;5145025;27;20707;-71
2024/02/16 10:40:19;;;;;;;5.83;3.53;;;14.60;99.90;;;;;;5127241;27;20429;-67
2024/02/16 10:42:51;;;;;;;2.33;2.10;;;14.60;99.90;;;;;;5143675;27;20402;-72
2024/02/16 10:45:18;;;;;;;3.20;2.43;;;14.50;99.90;;;;;;5141812;27;20511;-71
2024/02/16 10:47:44;;;;;;;4.77;3.07;;;14.50;99.90;;;;;;5141838;27;20464;-73
2024/02/16 10:50:10;;;;;;;4.47;3.00;;;14.50;99.90;;;;;;5141289;27;20410;-72
2024/02/16 10:52:39;;;;;;;5.10;3.23;;;14.50;99.90;;;;;;5125857;27;20699;-70
2024/02/16 10:55:05;;;;;;;3.53;2.73;;;14.50;99.90;;;;;;5137110;27;20432;-72
2024/02/16 10:57:33;;;;;;;5.63;2.80;;;14.40;99.90;;;;;;5139640;27;20444;-70
2024/02/16 10:59:59;;;;;;;7.13;3.70;;;14.40;99.90;;;;;;5141068;27;20438;-69
2024/02/16 11:02:25;;;;;;;5.33;3.70;;;14.50;99.90;;;;;;5142102;27;20400;-73
2024/02/16 11:04:53;;;;;;;5.60;3.27;;;14.50;99.90;;;;;;5140189;27;20448;-68
2024/02/16 11:07:19;;;;;;;6.87;3.30;;;14.50;99.90;;;;;;5139873;27;20445;-70
2024/02/16 11:09:46;;;;;;;5.90;3.57;;;14.50;99.90;;;;;;5133159;28;20499;-71
2024/02/16 11:12:15;;;;;;;4.87;2.70;;;14.40;99.90;;;;;;5128076;28;20430;-70
2024/02/16 11:14:54;;;;;;;4.73;3.30;;;14.40;99.90;;;;;;5140319;28;20428;-70
2024/02/16 11:17:22;;;;;;;3.00;2.50;;;14.40;99.90;;;;;;5138290;28;20489;-69
2024/02/16 11:19:49;;;;;;;6.13;2.80;;;14.40;99.90;;;;;;5140441;28;20501;-70
2024/02/16 11:22:18;;;;;;;4.67;3.10;;;14.50;99.90;;;;;;5139928;28;20416;-68
2024/02/16 11:24:48;;;;;;;4.40;3.00;;;14.50;99.90;;;;;;5141912;28;20400;-73
2024/02/16 11:27:18;;;;;;;4.30;3.47;;;14.50;99.90;;;;;;5132465;28;20740;-70
2024/02/16 11:29:45;;;;;;;9.97;3.37;;;14.60;99.90;;;;;;5140681;28;20422;-72
2024/02/16 11:32:11;;;;;;;7.87;3.80;;;14.70;99.90;;;;;;5140763;27;20439;-74
2024/02/16 11:34:37;;;;;;;7.90;4.57;;;14.70;99.90;;;;;;5124508;28;20408;-67
2024/02/16 11:37:04;;;;;;;6.30;4.20;;;14.70;99.90;;;;;;5139646;27;20221;-68
2024/02/16 11:39:31;;;;;;;4.73;3.43;;;14.70;99.90;;;;;;5134400;28;20442;-67
2024/02/16 11:42:11;;;;;;;5.90;4.10;;;14.70;99.90;;;;;;5140637;28;20529;-69
2024/02/16 11:44:42;;;;;;;4.73;3.93;;;14.70;99.90;;;;;;5137486;28;20468;-70
2024/02/16 11:47:14;;;;;;;6.70;3.43;;;14.70;99.90;;;;;;5131827;28;20447;-70
2024/02/16 11:49:41;;;;;;;7.30;3.40;;;14.80;99.90;;;;;;5142215;27;20421;-68
2024/02/16 11:52:07;;;;;;;5.10;3.20;;;14.80;99.90;;;;;;5139701;28;20731;-70
2024/02/16 11:54:35;;;;;;;4.53;3.20;;;14.80;99.90;;;;;;5124561;28;20195;-70
2024/02/16 11:57:00;;;;;;;3.90;2.90;;;14.90;99.90;;;;;;5121200;28;20453;-71
2024/02/16 11:59:26;;;;;;;4.07;3.00;;;14.90;99.90;;;;;;5139803;28;20630;-71
2024/02/16 12:01:53;;;;;;;7.47;4.30;;;14.90;99.90;;;;;;5133971;28;20257;-71
2024/02/16 12:04:26;;;;;;;4.47;3.03;;;14.90;99.90;;;;;;5126004;28;20203;-72
2024/02/16 12:07:00;;;;;;;6.00;3.67;;;14.90;99.90;;;;;;5141205;28;20941;-72
2024/02/16 12:09:26;;;;;;;5.37;2.90;;;14.80;99.90;;;;;;5140564;27;20460;-70
2024/02/16 12:11:53;;;;;;;3.70;3.00;;;14.80;99.90;;;;;;5141244;27;20465;-72
2024/02/16 12:14:24;;;;;;;6.87;3.87;;;14.80;99.90;;;;;;5143467;27;20429;-73
2024/02/16 12:17:01;;;;;;;4.07;3.20;;;14.70;99.90;;;;;;5141747;27;20441;-70
2024/02/16 12:19:46;;;;;;;7.53;4.00;;;14.70;99.90;;;;;;5144075;27;20423;-73
2024/02/16 12:22:25;;;;;;;5.30;3.70;;;14.70;99.90;;;;;;5126389;27;20412;-73
2024/02/16 12:24:51;;;;;;;4.20;3.77;;;14.70;99.90;;;;;;5148331;27;20444;-72
2024/02/16 12:27:17;;;;;;;7.30;3.63;;;14.70;99.90;;;;;;5145908;27;20444;-70
2024/02/16 12:29:43;;;;;;;6.53;3.60;;;14.70;99.90;;;;;;5134516;27;20183;-69
2024/02/16 12:32:09;;;;;;;4.77;3.27;;;14.60;99.90;;;;;;5144106;27;20199;-73
2024/02/16 12:34:37;;;;;;;3.90;3.17;;;14.60;99.90;;;;;;5143457;27;20433;-72
2024/02/16 12:37:06;;;;;;;5.03;3.30;;;14.60;99.90;;;;;;5142269;27;20543;-73
2024/02/16 12:39:33;;;;;;;4.97;3.67;;;14.60;99.90;;;;;;5145590;27;20436;-72
2024/02/16 12:41:59;;;;;;;4.00;3.13;;;14.50;99.90;;;;;;5148523;27;20457;-72
2024/02/16 12:44:25;;;;;;;4.17;3.43;;;14.50;99.90;;;;;;5149713;27;20502;-73
2024/02/16 12:46:50;;;;;;;3.33;3.03;;;14.50;99.90;;;;;;5137368;27;20264;-71